Weather observations for the past three days for
Palm Beach County Park Airport
Imperial (Metric)
Date Time (edt) Wind (mph) Vis. (mi.) Weather Sky Cond. Temperature (ºF) Relative Humidity Wind Chill (°F) Heat Index (°F) Pressure Precipitation (in)
Air Dwpt 6 hour altimeter (in) sea level (mb) 1 hr 3 hr 6 hr
Max. Min.
08 19:35 E 8 10.00 Fair CLR 82.2 69.6 66% 86 29.92 0.0
08 19:15 E 8 10.00 Fair CLR 82.8 69.8 65% 87 29.92 0.0
08 18:55 E 9 10.00 Fair CLR 82.9 69.6 64% 87 29.92 0.0
08 18:35 E 10 10.00 Fair CLR 83.7 69.8 63% 88 29.91 0.0
08 18:15 E 10 10.00 Fair CLR 84.2 69.8 62% 88 29.91 0.0
08 17:55 E 12 10.00 Fair CLR 84 69.8 62% 88 29.92 0.0
08 17:35 E 10 10.00 Fair CLR 84.7 68.9 59% 89 29.92 0.0
08 17:15 E 10 10.00 Fair CLR 85.5 68 56% 89 29.92 0.0
08 16:55 E 12 10.00 Fair CLR 85.6 66.7 53% 88 29.92 0.0
08 16:35 E 13 10.00 Fair CLR 86 65.7 51% 88 29.93 0.0
08 16:15 E 10 10.00 Fair CLR 86.2 65.8 51% 88 29.93 0.0
08 15:55 E 12 10.00 Fair CLR 86.7 66.7 51% 89 29.95 0.0
08 15:35 E 8 10.00 Fair CLR 86.9 66.9 52% 90 29.95 0.0
08 15:15 NE 9 10.00 Fair CLR 86.4 66.2 51% 89 29.95 0.0
08 14:55 E 12 10.00 Fair CLR 87.1 64.2 47% 88 29.96 0.0
08 14:35 NE 9 10.00 Fair CLR 86.5 65.8 50% 89 29.96 0.0
08 14:15 NE 10 10.00 Fair CLR 87.1 66.6 51% 90 29.97 0.0
08 13:55 NE 10 10.00 Fair CLR 87.4 67.5 88 76.8 52% 91 29.98 0.0
08 13:35 NE 8 10.00 Fair CLR 86.7 67.6 53% 90 29.98 0.0
08 13:15 E 9 10.00 Fair CLR 86.9 67.6 53% 90 29.99 0.0
08 12:55 NE 10 10.00 Fair CLR 86.7 68 54% 90 30 0.0
08 12:35 NE 10 10.00 Partly Cloudy SCT044 86.4 67.1 53% 89 30 0.0
08 12:15 NE 10 10.00 Fair CLR 86.5 67.8 54% 90 30 0.0
08 11:55 NE 12 10.00 Fair CLR 87.6 66.6 50% 90 30.01 0.0
08 11:35 NE 6 10.00 Fair CLR 87.8 62.4 43% 88 30.01 0.0
08 11:15 N 3 10.00 Fair CLR 86.9 63.5 46% 88 30.02 0.0
08 10:55 N 5 10.00 Fair CLR 86.2 63.1 46% 87 30.01 0.0
08 10:35 NW 6 10.00 Fair CLR 85.5 64.6 50% 87 30.01 0.0
08 10:15 N 8 10.00 Fair CLR 84.6 64 50% 86 30.01 0.0
08 09:55 NW 7 10.00 Fair CLR 83.8 64.4 52% 85 30.01 0.0
08 09:35 NW 8 10.00 Fair CLR 83.3 64 52% 85 30.01 0.0
08 09:15 N 7 10.00 Fair CLR 82.4 63.9 54% 84 30.01 0.0
08 08:55 N 7 10.00 Fair CLR 81.1 64 56% 83 30 0.0
08 08:35 NW 6 10.00 Fair CLR 79.3 63.5 58% 81 30 0.0
08 08:15 NW 5 10.00 Fair CLR 77.9 62.8 60% 80 30 0.0
08 07:55 NW 5 10.00 Fair CLR 76.3 62.1 77.2 73 62% 78 29.99 0.0
08 07:35 NW 3 10.00 Fair CLR 74.8 61.7 64% 29.98 0.0
08 07:15 NW 3 10.00 Fair CLR 73.6 61.2 65% 29.98 0.0
08 06:55 NW 3 10.00 Fair CLR 73.2 61 66% 29.97 0.0
08 06:35 NW 3 10.00 Fair CLR 73.4 60.8 65% 29.96 0.0
08 06:15 NW 6 10.00 Fair CLR 73.6 61 65% 29.95 0.0
08 05:55 NW 5 10.00 Fair CLR 74.1 61.3 64% 29.95 0.0
08 05:35 NW 3 10.00 Fair CLR 74.3 62.8 67% 29.95 0.0
08 05:15 NW 3 10.00 Fair CLR 74.7 63.5 68% 29.95 0.0
08 04:55 NW 5 10.00 Fair CLR 74.8 64.2 70% 29.95 0.0
08 04:35 W 3 10.00 Fair CLR 74.8 65.3 72% 29.94 0.0
08 04:15 W 3 10.00 Fair CLR 74.8 66.6 76% 29.95 0.0
08 03:55 Calm 10.00 Fair CLR 75.2 67.5 77% 76 29.95 0.0
08 03:35 W 3 10.00 Fair CLR 75.6 68 77% 77 29.95 0.0
08 03:15 W 3 10.00 Fair CLR 76.1 68 76% 77 29.95 0.0
08 02:55 W 3 10.00 Fair CLR 76.5 68 75% 78 29.95 0.0
08 02:35 Calm 10.00 Fair CLR 76.5 68 75% 78 29.95 0.0
08 02:15 W 3 10.00 Fair CLR 76.8 67.8 74% 78 29.96 0.0
08 01:55 SW 3 10.00 Fair CLR 77 67.8 83.3 77 73% 79 29.96 0.0
08 01:35 SW 3 10.00 Fair CLR 77.5 67.3 71% 79 29.97 0.0
08 01:15 S 3 10.00 Fair CLR 80.6 68.2 66% 83 29.97 0.0
08 00:55 S 5 10.00 Fair CLR 80.6 68 66% 83 29.97 0.0
08 00:35 S 5 10.00 Fair CLR 81.1 68 64% 84 29.97 0.0
08 00:15 S 6 10.00 Fair CLR 81.3 67.6 63% 84 29.97 0.0
07 23:55 S 5 10.00 Fair CLR 81.5 67.1 62% 84 29.98 0.0
07 23:35 S 7 10.00 Fair CLR 81.5 67.1 62% 84 29.97 0.0
07 23:15 SE 6 10.00 Fair CLR 81.5 67.3 62% 84 29.97 0.0
07 22:55 SE 7 10.00 Fair CLR 81.7 67.1 61% 84 29.97 0.0
07 22:35 SE 8 10.00 Fair CLR 81.9 66.7 60% 84 29.97 0.0
07 22:15 SE 6 10.00 Fair CLR 81.9 66.4 60% 84 29.97 0.0
07 21:55 S 7 10.00 Fair CLR 82.4 66.2 58% 85 29.97 0.0
07 21:35 SE 7 10.00 Fair CLR 82.2 65.1 56% 84 29.97 0.0
07 21:15 SE 5 10.00 Fair CLR 82.4 65.1 56% 84 29.97 0.0
07 20:55 SE 6 10.00 Fair CLR 82.6 64 54% 84 29.97 0.0
07 20:35 SE 6 10.00 Fair CLR 82.6 64 54% 84 29.97 0.0
07 20:15 SE 6 10.00 Fair CLR 83.1 63.1 51% 84 29.96 0.0
07 19:55 SE 8 10.00 Fair CLR 83.3 63.1 88.9 83.3 51% 84 29.95 0.0
07 19:35 SE 8 10.00 Fair CLR 83.8 63 50% 85 29.95 0.0
07 19:15 SE 12 10.00 Fair CLR 84.7 62.6 47% 86 29.94 0.0
07 18:55 NE 12 G 17 10.00 Fair CLR 85.1 64.4 50% 87 29.95 0.0
07 18:35 SE 10 10.00 Fair CLR 86 63.3 47% 87 29.94 0.0
07 18:15 SE 12 10.00 Fair CLR 86.2 62.2 45% 87 29.94 0.0
07 17:55 SE 13 10.00 Fair CLR 86.9 62.4 44% 88 29.94 0.0
07 17:35 SE 13 10.00 Fair CLR 86.9 63.1 45% 88 29.94 0.0
07 17:15 SE 12 10.00 Fair CLR 87.3 62.8 44% 88 29.94 0.0
07 16:55 SE 13 10.00 Fair CLR 88 63.5 44% 89 29.94 0.0
07 16:35 SE 12 10.00 Fair CLR 87.6 65.3 48% 90 29.95 0.0
07 16:15 SE 12 10.00 Fair CLR 87.8 65.3 47% 90 29.95 0.0
07 15:55 SE 10 10.00 Fair CLR 88 65.5 47% 90 29.96 0.0
07 15:35 SE 10 10.00 Fair CLR 87.3 65.3 48% 89 29.96 0.0
07 15:15 SE 9 10.00 Fair CLR 88.3 66 48% 91 29.97 0.0
07 14:55 SE 10 10.00 Fair CLR 88.2 66 48% 91 29.98 0.0
07 14:35 SE 10 10.00 Fair CLR 88 65.5 47% 90 29.98 0.0
07 14:15 SE 10 10.00 Fair CLR 87.8 66.6 49% 91 29.99 0.0
07 13:55 E 9 10.00 Fair CLR 87.4 66.7 89.6 75.6 50% 90 30 0.0
07 13:35 E 9 10.00 Fair CLR 87.8 67.6 51% 91 30 0.0
07 13:15 E 8 10.00 Fair CLR 87.3 66.9 51% 90 30.01 0.0
07 12:55 SE 10 10.00 Fair CLR 86.9 67.5 52% 90 30.01 0.0
07 12:35 SE 10 10.00 Fair CLR 88.2 67.3 50% 91 30.02 0.0
07 12:15 Calm 10.00 Fair CLR 88.2 59.5 38% 88 30.03 0.0
07 11:55 Calm 10.00 Partly Cloudy SCT040 87.1 58.6 38% 86 30.03 0.0
07 11:35 SW 5 10.00 Partly Cloudy SCT038 88 60.6 40% 88 30.04 0.0
07 11:15 SW 6 10.00 Fair CLR 86.9 62.6 44% 88 30.04 0.0
07 10:55 S 8 10.00 Fair CLR 86.4 63 46% 87 30.04 0.0
07 10:35 S 5 10.00 Fair CLR 85.1 63.9 49% 86 30.04 0.0
07 10:15 SW 8 10.00 Fair CLR 84.7 64.2 50% 86 30.04 0.0
07 09:55 SW 3 10.00 Fair CLR 83.5 66.4 56% 86 30.04 0.0
07 09:35 S 5 10.00 Fair CLR 82.8 66.9 59% 85 30.04 0.0
07 09:15 SW 6 10.00 Fair CLR 81.9 67.1 61% 84 30.04 0.0
07 08:55 SW 5 10.00 Fair CLR 80.8 66.9 63% 83 30.04 0.0
07 08:35 SW 3 10.00 Fair CLR 79 68 69% 81 30.04 0.0
07 08:15 Calm 10.00 Fair CLR 77 68.4 75% 79 30.04 0.0
07 07:55 Calm 10.00 Fair CLR 75.4 68.7 77 70.9 80% 76 30.04 0.0
07 07:35 Calm 10.00 Fair CLR 73.6 68.2 83% 30.03 0.0
07 07:15 Calm 10.00 Fair CLR 71.6 66 83% 30.02 0.0
07 06:55 Calm 10.00 Fair CLR 71.4 65.7 82% 30 0.0
07 06:35 Calm 10.00 Fair CLR 72.3 66.4 82% 30 0.0
07 06:15 Calm 10.00 Fair CLR 71.6 65.5 81% 29.99 0.0
07 05:55 SW 3 10.00 Fair CLR 71.1 64.6 80% 29.98 0.0
07 05:35 Calm 10.00 Fair CLR 72.1 65.3 79% 29.98 0.0
07 05:15 Calm 10.00 Fair CLR 73.4 66.2 78% 29.98 0.0
07 04:55 Calm 10.00 Fair CLR 73 65.8 78% 29.98 0.0
07 04:35 Calm 10.00 Fair CLR 73.9 65.8 76% 29.98 0.0
07 04:15 Calm 10.00 Fair CLR 73.6 65.8 77% 29.98 0.0
07 03:55 Calm 10.00 Fair CLR 72.5 64.6 76% 29.98 0.0
07 03:35 Calm 10.00 Fair CLR 72.5 64.4 76% 29.99 0.0
07 03:15 Calm 10.00 Fair CLR 72.7 64.4 75% 29.98 0.0
07 02:55 Calm 10.00 Fair CLR 72.5 64 75% 30 0.0
07 02:35 Calm 10.00 Fair CLR 73.4 62.8 70% 30 0.0
07 02:15 SE 3 10.00 Fair CLR 76.6 63.7 64% 78 30 0.0
07 01:55 E 5 10.00 Fair CLR 76.8 63.9 80.6 76.6 64% 79 30.01 0.0
07 01:35 SE 3 10.00 Fair CLR 77.5 63.5 62% 79 30.02 0.0
07 01:15 SE 6 10.00 Fair CLR 77.9 63 60% 80 30.02 0.0
07 00:55 E 6 10.00 Fair CLR 77.9 62.6 59% 80 30.03 0.0
07 00:35 E 5 10.00 Fair CLR 77.9 62.8 60% 80 30.03 0.0
07 00:15 SE 7 10.00 Fair CLR 77.9 62.6 59% 80 30.03 0.0
06 23:55 E 7 10.00 Fair CLR 78.3 63 59% 80 30.03 0.0
06 23:35 E 6 10.00 Fair CLR 78.4 63.5 60% 80 30.03 0.0
06 23:15 E 7 10.00 Fair CLR 79 63.5 59% 81 30.04 0.0
06 22:55 E 7 10.00 Fair CLR 78.8 63.7 60% 80 30.04 0.0
06 22:35 E 7 10.00 Fair CLR 79.2 64 60% 81 30.04 0.0
06 22:15 E 7 10.00 Fair CLR 78.8 63.7 60% 80 30.03 0.0
06 21:55 E 7 10.00 Fair CLR 79.2 63.5 59% 81 30.03 0.0
06 21:35 E 7 10.00 Fair CLR 79.2 62.6 57% 81 30.03 0.0
06 21:15 E 6 10.00 Fair CLR 79.7 62.6 56% 81 30.03 0.0
06 20:55 E 7 10.00 Fair CLR 79.7 62.8 56% 81 30.03 0.0
06 20:35 E 7 10.00 Fair CLR 79.9 61.9 54% 81 30.03 0.0
06 20:15 E 7 10.00 Fair CLR 80.4 61.2 52% 81 30.03 0.0
06 19:55 E 7 10.00 Fair CLR 80.8 60.8 86.2 80.8 51% 82 30.02 0.0
06 19:35 NE 7 10.00 Fair CLR 81.7 60.4 49% 82 30.02 0.0
06 19:15 E 6 10.00 Fair CLR 82.4 62.1 50% 83 30.02 0.0
06 18:55 E 9 10.00 Fair CLR 83.1 62.1 49% 84 30.02 0.0
06 18:35 NE 12 10.00 Fair CLR 83.3 61 47% 84 30.01 0.0
06 18:15 E 10 10.00 Fair CLR 83.5 61.5 48% 84 30.01 0.0
06 17:55 E 9 10.00 Fair CLR 84.4 60.6 45% 85 30.01 0.0
06 17:35 E 8 10.00 Fair CLR 84.6 59.4 43% 84 30.01 0.0
06 17:15 NE 8 10.00 Fair CLR 84.7 59.5 43% 85 30.01 0.0
06 16:55 NE 8 10.00 Fair CLR 85.1 61.5 45% 85 30.01 0.0
06 16:35 E 8 10.00 Fair CLR 85.3 59.7 42% 85 30.01 0.0
06 16:15 E 10 10.00 Fair CLR 85.5 60.6 43% 85 30.02 0.0
06 15:55 E 12 10.00 Fair CLR 85.6 60.6 43% 86 30.02 0.0
06 15:35 E 10 10.00 Fair CLR 85.5 61.2 44% 86 30.03 0.0
06 15:15 E 8 10.00 Fair CLR 85.3 61.3 45% 86 30.03 0.0
06 14:55 E 9 10.00 Fair CLR 86 60.3 42% 86 30.04 0.0
06 14:35 E 7 10.00 Fair CLR 86 63.9 48% 87 30.05 0.0
06 14:15 E 8 10.00 Fair CLR 86 61.2 43% 86 30.05 0.0
06 13:55 E 6 10.00 Fair CLR 85.5 61.2 86 79.5 44% 86 30.05 0.0
06 13:35 E 7 10.00 Fair CLR 84.7 64.6 51% 86 30.05 0.0
06 13:15 E 8 10.00 Fair CLR 85.3 66.4 53% 88 30.05 0.0
06 12:55 E 7 10.00 Fair CLR 85.1 66.6 54% 88 30.06 0.0
06 12:35 E 6 10.00 Fair CLR 84.6 65.8 54% 87 30.06 0.0
06 12:15 E 7 10.00 Fair CLR 84.2 66.2 55% 87 30.07 0.0
06 11:55 E 7 10.00 Fair CLR 84.2 66.2 55% 87 30.07 0.0
06 11:35 E 6 10.00 Fair CLR 83.7 66 55% 86 30.06 0.0
06 11:15 Calm 10.00 Fair CLR 83.1 65.8 56% 85 30.06 0.0
06 10:55 E 7 10.00 Fair CLR 83.5 66 56% 86 30.06 0.0
06 10:35 E 7 10.00 Fair CLR 82.8 66.9 59% 85 30.05 0.0
06 10:15 E 6 10.00 Partly Cloudy SCT020 81.9 66.9 61% 84 30.05 0.0
06 09:55 E 9 10.00 Partly Cloudy SCT020 81.3 67.1 62% 84 30.05 0.0
06 09:35 E 9 10.00 Partly Cloudy SCT020 81.1 67.3 63% 84 30.05 0.0
06 09:15 E 9 10.00 Partly Cloudy SCT020 81.1 67.3 63% 84 30.04 0.0
06 08:55 E 8 10.00 Partly Cloudy SCT019 80.4 67.5 65% 83 30.04 0.0
06 08:35 E 7 10.00 Mostly Cloudy BKN019 79.9 67.3 66% 82 30.04 0.0
06 08:15 E 8 10.00 Partly Cloudy SCT019 79.9 67.1 65% 82 30.03 0.0
06 07:55 E 6 10.00 Partly Cloudy SCT019 79.7 67.1 79.7 76.6 65% 82 30.03 0.0
06 07:35 E 6 10.00 Partly Cloudy SCT019 79.2 67.6 68% 81 30.03 0.0
06 07:15 E 3 10.00 Partly Cloudy SCT019 77.7 67.6 71% 80 30.02 0.0
06 06:55 E 5 10.00 Partly Cloudy SCT019 77 67.1 72% 79 30.01 0.0
06 06:35 E 5 10.00 Partly Cloudy SCT019 77 67.1 72% 79 30.01 0.0
06 06:15 E 3 10.00 Partly Cloudy SCT019 76.6 67.1 72% 78 30.01 0.0
06 05:55 E 3 10.00 Fair CLR 76.8 66.9 72% 79 30 0.0
06 05:35 E 5 10.00 Partly Cloudy SCT018 77 67.1 72% 79 30 0.0
06 05:15 E 3 10.00 Fair CLR 76.8 67.1 72% 79 30 0.0
06 04:55 E 3 10.00 Fair CLR 77 67.1 72% 79 29.99 0.0
06 04:35 E 5 10.00 Fair CLR 77 66.7 71% 79 30 0.0
06 04:15 E 5 10.00 Fair CLR 77.2 66.6 70% 79 30 0.0
06 03:55 E 5 10.00 Fair CLR 77.4 66.4 69% 79 30 0.0
06 03:35 E 5 10.00 Fair CLR 77.5 66.4 69% 79 29.99 0.0
06 03:15 E 6 10.00 Partly Cloudy SCT075 77.9 66.6 68% 80 29.99 0.0
06 02:55 E 7 10.00 Mostly Cloudy BKN075 77.9 66.2 67% 80 29.99 0.0
06 02:35 E 6 10.00 Mostly Cloudy BKN065 78.3 66.7 68% 80 30 0.0
06 02:15 E 7 10.00 Overcast SCT021 OVC065 78.4 66.4 67% 80 30 0.0
06 01:55 E 8 10.00 Mostly Cloudy SCT021 BKN065 78.4 66.4 79.2 78.1 67% 80 30.01 0.0
06 01:35 E 8 10.00 Mostly Cloudy SCT019 BKN065 78.4 66.9 68% 81 30.01 0.0
06 01:15 E 8 10.00 Fair CLR 78.3 67.1 69% 80 30.02 0.0
06 00:55 E 6 10.00 Fair CLR 78.1 66.2 67% 80 30.01 0.0
06 00:35 E 7 10.00 Partly Cloudy SCT020 78.4 65.8 65% 80 30.02 0.0
06 00:15 E 6 10.00 Mostly Cloudy SCT020 BKN026 BKN033 78.8 67.1 67% 81 30.03 0.0
05 23:55 E 8 10.00 Partly Cloudy SCT024 SCT033 78.8 66.2 65% 81 30.03 0.0
05 23:35 E 8 10.00 Mostly Cloudy BKN023 BKN031 79 66.7 66% 81 30.03 0.0
05 23:15 E 6 10.00 Partly Cloudy SCT021 SCT028 SCT033 78.6 66.6 67% 81 30.02 0.0
05 22:55 NE 9 10.00 Overcast BKN021 BKN028 OVC035 79.2 66.6 65% 81 30.02 0.0
05 22:35 NE 12 10.00 Mostly Cloudy BKN021 BKN028 BKN038 78.8 66.4 66% 81 30.01 0.0
05 22:15 E 6 10.00 Partly Cloudy SCT021 SCT028 78.8 66.2 65% 81 30.01 0.0
05 21:55 E 9 10.00 Partly Cloudy SCT021 SCT028 78.8 66.4 66% 81 30 0.0
05 21:35 E 9 10.00 Partly Cloudy SCT021 78.8 66.2 65% 81 29.99 0.0
05 21:15 NE 8 10.00 Fair CLR 78.8 65.8 65% 81 29.99 0.0
05 20:55 E 9 10.00 Fair CLR 78.8 65.3 63% 81 29.99 0.0
05 20:35 NE 9 10.00 Partly Cloudy SCT022 SCT027 SCT035 78.8 65.3 63% 81 29.99 0.0
05 20:15 E 9 10.00 Partly Cloudy SCT024 SCT032 78.8 65.8 65% 81 29.99 0.0
05 19:55 NE 10 10.00 Partly Cloudy SCT022 SCT032 79 65.5 82.9 79 63% 81 29.98 0.0
Date Time (edt) Wind (mph) Vis. (mi.) Weather Sky Cond. Air Dwpt Max. Min. Relative Humidity Wind Chill (°F) Heat Index (°F) altimeter (in) sea level (mb) 1 hr 3 hr 6 hr
6 hour
Temperature (ºF) Pressure Precipitation (in)